首页
METAR-TAF:

METAR-TAF

机场 :

Muir Army Airfield

Fort Indiantown Gap, 宾夕法尼亚州, 美国

纬度: 40-26N, 经度: 076-34W, 海拔: 149米

当前天气观测

该预报发布于16分钟前的06:19 UTC
静风
温度 22°C
湿度 94%
气压 1009 hPa
能見度: 11.3公里
散云层高于1700英尺
散云层高于3200英尺
多云层高于6500英尺
阴天层高于8000英尺
小雨

METAR: KMUI 250619Z AUTO 00000KT 7SM -RA SCT017 SCT032 BKN065 OVC080 22/21 A2979 RMK AO2 RAB03 SLPNO

时间: 02:35 (06:35 UTC)

预报

该预报发布于11小时和35分钟前的19:00 UTC
预报有效从24日的 19点(UTC)到 26日的 01点(UTC)
风速6节,风向
能见度10公里或以上
少量云层高于5000英尺
多云层高于14000英尺
多云层高于20000英尺
成为
从 25日的 03点(UTC)到 25日的 04点(UTC)
风速6节,风向多变
能見度: 8000
散云层高于1500英尺
多云层高于2500英尺
阴天层高于5000英尺
小阵雨
短暂存在
从 25日的 06点(UTC)到 25日的 11点(UTC)
能見度: 4800
阴天层高于1000英尺, 积雨云.
雷暴, 小雨, 轻雾
成为
从 25日的 13点(UTC)到 25日的 14点(UTC)
风速12节,风向西,有时为18节阵风
能见度10公里或以上
散云层高于3500英尺
成为
从 25日的 22点(UTC)到 25日的 23点(UTC)
风速7节,风向西转西北
能見度: 2511
散云层高于4000英尺

TAF: KMUI 241900Z 2419/2601 17006KT 9999 FEW050 BKN140 BKN200 QNH2975INS BECMG 2503/2504 VRB06KT 8000 -SHRA SCT015 BKN025 OVC050 QNH2974INS TEMPO 2506/2511 4800 -TSRA BR OVC010CB BECMG 2513/2514 28012G18KT 9999 NSW SCT035 QNH2983INS BECMG 2522/2523 29007KT 9999 SCT040 QNH2990INS TX32/2420Z TN22/2511Z LAST NO AMDS AFT 2505 NEXT 2511

超过4000个机场的气象观测和天气预报(METAR&TAF报告)。

可查询的气象台以黄色和红色小点在地图上表示。

将鼠标移到小点上方,可查看气象台名称。

然后点击查看天气观测和预报。

如需切换地图:点击带黑十字的绿色按钮放大地图;点击带横线的绿色按钮缩小地图;或者点击绿色箭头查看邻近地区的地图。


METAR-TAF: